Time;durP1;ratioP1;P1;durP2;ratioP2;P2;SDS_P1;SDS_P2;PMS_P1;PMS_P2;Temp;Humidity;BMP_temperature;BMP_pressure;BME280_temperature;BME280_humidity;BME280_pressure;Samples;Min_cycle;Max_cycle;Signal;HPM_P1;HPM_P2
2022/11/23 00:01:57;;;;;;;0.70;0.40;;;5.50;99.90;;;;;;5114315;28;20472;-59
2022/11/23 00:04:24;;;;;;;4.40;0.40;;;5.50;99.90;;;;;;5115367;28;20789;-56
2022/11/23 00:06:51;;;;;;;1.67;0.40;;;5.50;99.90;;;;;;5113560;28;20537;-56
2022/11/23 00:09:18;;;;;;;2.03;0.40;;;5.40;99.90;;;;;;5115050;28;20488;-56
2022/11/23 00:11:45;;;;;;;0.93;0.50;;;5.40;99.90;;;;;;5114762;28;20891;-57
2022/11/23 00:14:13;;;;;;;0.70;0.40;;;5.40;99.90;;;;;;5113699;28;20555;-55
2022/11/23 00:16:40;;;;;;;1.80;0.43;;;5.40;99.90;;;;;;5113707;28;20441;-53
2022/11/23 00:19:07;;;;;;;0.60;0.33;;;5.30;99.90;;;;;;5114239;28;20941;-56
2022/11/23 00:21:34;;;;;;;1.33;0.40;;;5.40;99.90;;;;;;5113531;28;20463;-57
2022/11/23 00:24:01;;;;;;;1.07;0.30;;;5.30;99.90;;;;;;5115813;28;20459;-58
2022/11/23 00:26:28;;;;;;;0.80;0.43;;;5.40;99.90;;;;;;5116953;28;20451;-56
2022/11/23 00:28:55;;;;;;;0.80;0.40;;;5.30;99.90;;;;;;5117292;28;20923;-56
2022/11/23 00:31:24;;;;;;;0.63;0.40;;;5.30;99.90;;;;;;5117749;28;20448;-56
2022/11/23 00:33:52;;;;;;;2.43;0.40;;;5.30;99.90;;;;;;5117898;28;20509;-57
2022/11/23 00:36:20;;;;;;;0.60;0.40;;;5.20;99.90;;;;;;5118000;28;20455;-57
2022/11/23 00:38:48;;;;;;;0.70;0.40;;;5.20;99.90;;;;;;5119569;28;20447;-57
2022/11/23 00:41:16;;;;;;;0.63;0.40;;;5.20;99.90;;;;;;5119205;28;20454;-58
2022/11/23 00:43:44;;;;;;;3.73;0.50;;;5.30;99.90;;;;;;5118992;28;20466;-56
2022/11/23 00:46:13;;;;;;;1.60;0.30;;;5.20;99.90;;;;;;5117468;28;20455;-53
2022/11/23 00:48:42;;;;;;;1.70;0.40;;;5.20;99.90;;;;;;5117920;28;20518;-56
2022/11/23 00:51:11;;;;;;;2.73;0.50;;;5.20;99.90;;;;;;5117562;28;20852;-55
2022/11/23 00:53:38;;;;;;;0.70;0.30;;;5.20;99.90;;;;;;5117780;28;20455;-56
2022/11/23 00:56:05;;;;;;;1.80;0.50;;;5.20;99.90;;;;;;5119315;28;20538;-56
2022/11/23 00:58:33;;;;;;;2.93;0.40;;;5.10;99.90;;;;;;5118777;28;20441;-56
2022/11/23 01:01:01;;;;;;;1.47;0.40;;;5.20;99.90;;;;;;5118372;28;20452;-56
2022/11/23 01:03:29;;;;;;;0.87;0.30;;;5.20;99.90;;;;;;5116990;28;20454;-57
2022/11/23 01:06:02;;;;;;;0.73;0.40;;;5.20;99.90;;;;;;5116511;28;20879;-57
2022/11/23 01:08:29;;;;;;;0.97;0.30;;;5.30;99.90;;;;;;5117209;28;20570;-57
2022/11/23 01:10:59;;;;;;;0.60;0.30;;;5.30;99.90;;;;;;5117032;28;20452;-56
2022/11/23 01:13:26;;;;;;;0.60;0.40;;;5.30;99.90;;;;;;5116690;28;20886;-57
2022/11/23 01:15:53;;;;;;;1.30;0.30;;;5.30;99.90;;;;;;5117926;28;20452;-57
2022/11/23 01:18:20;;;;;;;0.50;0.40;;;5.30;99.90;;;;;;5118812;28;20445;-57
2022/11/23 01:20:47;;;;;;;0.60;0.30;;;5.20;99.90;;;;;;5118405;28;20487;-58
2022/11/23 01:23:15;;;;;;;0.90;0.40;;;5.30;99.90;;;;;;5117756;28;20441;-56
2022/11/23 01:25:42;;;;;;;0.60;0.40;;;5.20;99.90;;;;;;5117638;28;20457;-57
2022/11/23 01:28:09;;;;;;;2.13;0.40;;;5.20;99.90;;;;;;5118309;28;20444;-56
2022/11/23 01:30:36;;;;;;;1.53;0.30;;;5.10;99.90;;;;;;5118456;28;20852;-57
2022/11/23 01:33:03;;;;;;;1.03;0.40;;;5.10;99.90;;;;;;5117907;28;20455;-58
2022/11/23 01:35:30;;;;;;;1.10;0.40;;;5.10;99.90;;;;;;5116536;28;20831;-58
2022/11/23 01:37:57;;;;;;;0.70;0.40;;;5.10;99.90;;;;;;5117747;28;20537;-57
2022/11/23 01:40:25;;;;;;;0.70;0.30;;;5.10;99.90;;;;;;5117576;28;20449;-55
2022/11/23 01:42:54;;;;;;;0.50;0.30;;;5.00;99.90;;;;;;5117840;28;20506;-57
2022/11/23 01:45:34;;;;;;;0.60;0.37;;;5.00;99.90;;;;;;5117643;28;20451;-58
2022/11/23 01:48:02;;;;;;;0.90;0.30;;;5.00;99.90;;;;;;5117926;28;20679;-58
2022/11/23 01:50:30;;;;;;;1.13;0.30;;;5.00;99.90;;;;;;5118019;28;20512;-57
2022/11/23 01:52:57;;;;;;;1.20;0.40;;;5.00;99.90;;;;;;5117301;28;20440;-58
2022/11/23 01:55:27;;;;;;;0.40;0.20;;;5.00;99.90;;;;;;5117117;28;20917;-58
2022/11/23 01:57:55;;;;;;;0.40;0.20;;;5.00;99.90;;;;;;5117940;28;20578;-58
2022/11/23 02:00:22;;;;;;;0.83;0.30;;;5.00;99.90;;;;;;5117749;28;20910;-58
2022/11/23 02:02:55;;;;;;;0.50;0.20;;;5.10;99.90;;;;;;5117138;28;20451;-57
2022/11/23 02:05:28;;;;;;;0.50;0.30;;;5.10;99.90;;;;;;5116554;28;20457;-58
2022/11/23 02:07:55;;;;;;;2.40;0.30;;;5.10;99.90;;;;;;5116967;28;20897;-58
2022/11/23 02:10:22;;;;;;;1.13;0.30;;;5.10;99.90;;;;;;5116446;28;20490;-57
2022/11/23 02:12:51;;;;;;;0.67;0.37;;;5.10;99.90;;;;;;5117357;28;20448;-58
2022/11/23 02:15:18;;;;;;;3.73;0.33;;;5.10;99.90;;;;;;5117171;28;20555;-58
2022/11/23 02:17:45;;;;;;;2.20;0.20;;;5.20;99.90;;;;;;5117124;28;20459;-57
2022/11/23 02:20:15;;;;;;;0.50;0.30;;;5.20;99.90;;;;;;5117040;28;20993;-58
2022/11/23 02:22:51;;;;;;;0.50;0.30;;;5.20;99.90;;;;;;5116286;28;20448;-58
2022/11/23 02:25:28;;;;;;;1.37;0.30;;;5.30;99.90;;;;;;5117632;28;20509;-58
2022/11/23 02:27:57;;;;;;;0.40;0.20;;;5.30;99.90;;;;;;5117285;28;20448;-57
2022/11/23 02:30:25;;;;;;;0.40;0.20;;;5.30;99.90;;;;;;5116693;28;20579;-58
2022/11/23 02:32:52;;;;;;;0.47;0.20;;;5.30;99.90;;;;;;5116530;28;20443;-56
2022/11/23 02:35:18;;;;;;;0.50;0.30;;;5.20;99.90;;;;;;5116805;28;20452;-57
2022/11/23 02:37:45;;;;;;;2.10;0.20;;;5.30;99.90;;;;;;5116770;28;20441;-58
2022/11/23 02:40:20;;;;;;;0.60;0.20;;;5.30;99.90;;;;;;5117153;28;20731;-58
2022/11/23 02:42:48;;;;;;;0.80;0.20;;;5.30;99.90;;;;;;5116698;28;20440;-58
2022/11/23 02:45:27;;;;;;;2.07;0.37;;;5.30;99.90;;;;;;5116940;28;20459;-58
2022/11/23 02:47:54;;;;;;;0.63;0.23;;;5.30;99.90;;;;;;5116755;28;20472;-58
2022/11/23 02:50:21;;;;;;;0.97;0.37;;;5.50;99.90;;;;;;5115059;28;20485;-58
2022/11/23 02:52:48;;;;;;;0.67;0.30;;;5.50;99.90;;;;;;5114145;28;20880;-58
2022/11/23 02:55:15;;;;;;;0.50;0.20;;;5.50;99.90;;;;;;5114759;28;20452;-58
2022/11/23 02:57:41;;;;;;;1.47;0.30;;;5.40;99.90;;;;;;5115201;28;20464;-57
2022/11/23 03:00:10;;;;;;;1.93;0.40;;;5.30;99.90;;;;;;5115339;28;20448;-58
2022/11/23 03:02:38;;;;;;;0.50;0.20;;;5.30;99.90;;;;;;5116642;28;20527;-57
2022/11/23 03:05:06;;;;;;;0.67;0.30;;;5.30;99.90;;;;;;5116055;28;20452;-57
2022/11/23 03:07:33;;;;;;;1.53;0.30;;;5.30;99.90;;;;;;5116559;28;20451;-56
2022/11/23 03:09:59;;;;;;;0.53;0.20;;;5.30;99.90;;;;;;5116506;28;20883;-58
2022/11/23 03:12:26;;;;;;;0.53;0.30;;;5.30;99.90;;;;;;5116776;28;20445;-58
2022/11/23 03:14:53;;;;;;;1.27;0.20;;;5.30;99.90;;;;;;5116104;28;20452;-57
2022/11/23 03:17:20;;;;;;;2.63;0.30;;;5.30;99.90;;;;;;5116433;28;20436;-58
2022/11/23 03:19:48;;;;;;;1.47;0.30;;;5.40;99.90;;;;;;5116333;28;20479;-58
2022/11/23 03:22:15;;;;;;;1.07;0.30;;;5.40;99.90;;;;;;5116604;28;20544;-57
2022/11/23 03:24:42;;;;;;;0.73;0.20;;;5.40;99.90;;;;;;5116309;28;20460;-58
2022/11/23 03:27:09;;;;;;;6.63;0.30;;;5.50;99.90;;;;;;5116220;28;20448;-58
2022/11/23 03:29:35;;;;;;;1.80;0.30;;;5.50;99.90;;;;;;5116086;28;20519;-57
2022/11/23 03:32:02;;;;;;;0.80;0.20;;;5.50;99.90;;;;;;5116122;28;20445;-58
2022/11/23 03:34:29;;;;;;;3.03;0.30;;;5.50;99.90;;;;;;5116191;28;20457;-58
2022/11/23 03:36:57;;;;;;;0.50;0.30;;;5.50;99.90;;;;;;5115558;28;20448;-58
2022/11/23 03:39:24;;;;;;;0.60;0.30;;;5.50;99.90;;;;;;5116356;28;20456;-58
2022/11/23 03:41:51;;;;;;;0.87;0.20;;;5.50;99.90;;;;;;5116284;28;20441;-58
2022/11/23 03:44:18;;;;;;;1.20;0.30;;;5.60;99.90;;;;;;5114935;28;20459;-58
2022/11/23 03:46:45;;;;;;;1.40;0.30;;;5.60;99.90;;;;;;5115875;28;20825;-58
2022/11/23 03:49:11;;;;;;;0.47;0.30;;;5.50;99.90;;;;;;5115992;28;20557;-58
2022/11/23 03:51:38;;;;;;;0.50;0.30;;;5.50;99.90;;;;;;5116389;28;20744;-56
2022/11/23 03:54:07;;;;;;;0.70;0.20;;;5.40;99.90;;;;;;5116131;28;20539;-58
2022/11/23 03:56:33;;;;;;;4.63;0.40;;;5.40;99.90;;;;;;5116326;28;20441;-57
2022/11/23 03:59:00;;;;;;;0.40;0.20;;;5.50;99.90;;;;;;5119400;28;20445;-56
2022/11/23 04:01:27;;;;;;;0.77;0.37;;;5.50;99.90;;;;;;5119876;28;20808;-57
2022/11/23 04:03:54;;;;;;;0.50;0.30;;;5.40;99.90;;;;;;5120004;28;20450;-57
2022/11/23 04:06:21;;;;;;;1.00;0.30;;;5.40;99.90;;;;;;5120048;28;20522;-58
2022/11/23 04:08:47;;;;;;;0.60;0.30;;;5.40;99.90;;;;;;5119472;28;20543;-58
2022/11/23 04:11:15;;;;;;;0.53;0.30;;;5.40;99.90;;;;;;5119971;28;20490;-59
2022/11/23 04:13:42;;;;;;;2.70;0.37;;;5.40;99.90;;;;;;5120046;28;20898;-58
2022/11/23 04:16:09;;;;;;;0.80;0.40;;;5.30;99.90;;;;;;5119813;28;20457;-58
2022/11/23 04:18:36;;;;;;;0.83;0.20;;;5.30;99.90;;;;;;5119694;28;20555;-58
2022/11/23 04:21:03;;;;;;;0.67;0.30;;;5.30;99.90;;;;;;5119858;28;20445;-57
2022/11/23 04:23:30;;;;;;;1.90;0.80;;;5.20;99.90;;;;;;5119619;28;20445;-58
2022/11/23 04:25:56;;;;;;;0.57;0.30;;;5.20;99.90;;;;;;5119583;28;20456;-58
2022/11/23 04:28:25;;;;;;;1.20;0.30;;;5.20;99.90;;;;;;5119433;28;20451;-58
2022/11/23 04:30:51;;;;;;;1.90;0.27;;;5.30;99.90;;;;;;5119243;28;20503;-57
2022/11/23 04:33:18;;;;;;;0.73;0.27;;;5.20;99.90;;;;;;5119277;28;20446;-58
2022/11/23 04:35:45;;;;;;;0.77;0.30;;;5.30;99.90;;;;;;5119396;28;20479;-58
2022/11/23 04:38:12;;;;;;;0.40;0.30;;;5.30;99.90;;;;;;5119238;28;20445;-58
2022/11/23 04:40:39;;;;;;;0.60;0.30;;;5.30;99.90;;;;;;5118998;28;20459;-58
2022/11/23 04:43:06;;;;;;;3.43;0.30;;;5.20;99.90;;;;;;5119493;28;20436;-58
2022/11/23 04:45:38;;;;;;;3.67;0.60;;;5.20;99.90;;;;;;5119121;28;20948;-58
2022/11/23 04:48:05;;;;;;;0.70;0.40;;;5.20;99.90;;;;;;5119303;28;20445;-58
2022/11/23 04:50:33;;;;;;;0.77;0.30;;;5.10;99.90;;;;;;5118893;28;20491;-59
2022/11/23 04:53:00;;;;;;;1.07;0.20;;;5.00;99.90;;;;;;5115349;28;20891;-59
2022/11/23 04:55:26;;;;;;;1.10;0.40;;;4.90;99.90;;;;;;5098107;28;20454;-59
2022/11/23 04:57:53;;;;;;;0.30;0.20;;;4.90;99.90;;;;;;5097329;28;20869;-58
2022/11/23 05:00:20;;;;;;;0.90;0.30;;;4.90;99.90;;;;;;5096597;28;20455;-59
2022/11/23 05:02:48;;;;;;;0.40;0.20;;;4.90;99.90;;;;;;5098285;28;20452;-59
2022/11/23 05:05:15;;;;;;;0.60;0.30;;;4.90;99.90;;;;;;5098260;28;20911;-58
2022/11/23 05:07:42;;;;;;;0.60;0.30;;;4.90;99.90;;;;;;5097546;28;20445;-56
2022/11/23 05:10:10;;;;;;;3.70;0.40;;;4.90;99.90;;;;;;5097740;28;20487;-58
2022/11/23 05:12:36;;;;;;;5.77;0.40;;;5.00;99.90;;;;;;5097852;28;20744;-58
2022/11/23 05:15:03;;;;;;;1.37;0.30;;;5.00;99.90;;;;;;5098202;28;20544;-58
2022/11/23 05:17:32;;;;;;;0.50;0.30;;;5.10;99.90;;;;;;5098230;28;20441;-57
2022/11/23 05:20:00;;;;;;;0.50;0.20;;;5.10;99.90;;;;;;5097906;28;20477;-58
2022/11/23 05:22:27;;;;;;;0.30;0.20;;;5.10;99.90;;;;;;5098285;28;20462;-58
2022/11/23 05:24:54;;;;;;;1.20;0.23;;;5.10;99.90;;;;;;5097722;28;20454;-56
2022/11/23 05:27:21;;;;;;;1.00;0.30;;;5.10;99.90;;;;;;5097103;28;20536;-58
2022/11/23 05:29:47;;;;;;;2.97;0.20;;;5.10;99.90;;;;;;5098039;28;20487;-56
2022/11/23 05:32:14;;;;;;;0.50;0.30;;;5.10;99.90;;;;;;5097508;28;20450;-55
2022/11/23 05:34:41;;;;;;;1.10;0.40;;;5.20;99.90;;;;;;5096492;28;20462;-57
2022/11/23 05:37:09;;;;;;;1.65;0.30;;;5.20;99.90;;;;;;5096205;28;20508;-56
2022/11/23 05:39:36;;;;;;;1.80;0.40;;;5.30;99.90;;;;;;5096344;28;20499;-55
2022/11/23 05:42:03;;;;;;;1.00;0.35;;;5.30;99.90;;;;;;5096303;28;20424;-56
2022/11/23 05:44:30;;;;;;;0.63;0.30;;;5.30;99.90;;;;;;5095655;28;20429;-57
2022/11/23 05:46:57;;;;;;;0.90;0.40;;;5.40;99.90;;;;;;5096365;28;20540;-57
2022/11/23 05:49:24;;;;;;;1.20;0.30;;;5.60;99.90;;;;;;5097128;28;20442;-57
2022/11/23 05:51:51;;;;;;;1.90;0.40;;;5.60;99.90;;;;;;5096941;28;20430;-57
2022/11/23 05:54:19;;;;;;;0.98;0.30;;;5.60;99.90;;;;;;5096594;28;20426;-54
2022/11/23 05:56:46;;;;;;;1.60;0.40;;;5.60;99.90;;;;;;5096179;28;20516;-56
2022/11/23 05:59:13;;;;;;;1.30;0.30;;;5.70;99.90;;;;;;5114848;28;20506;-56
2022/11/23 06:01:39;;;;;;;0.70;0.30;;;5.70;99.90;;;;;;5116448;28;20502;-54
2022/11/23 06:04:06;;;;;;;1.52;0.38;;;5.70;99.90;;;;;;5115890;28;20447;-56
2022/11/23 06:06:33;;;;;;;0.70;0.30;;;5.70;99.90;;;;;;5116400;28;20492;-55
2022/11/23 06:09:00;;;;;;;1.83;0.40;;;5.70;99.90;;;;;;5116469;28;20719;-55
2022/11/23 06:11:30;;;;;;;1.17;0.30;;;5.70;99.90;;;;;;5116291;28;20919;-56
2022/11/23 06:13:56;;;;;;;1.20;0.30;;;5.60;99.90;;;;;;5115874;28;20462;-56
2022/11/23 06:16:23;;;;;;;1.30;0.40;;;5.60;99.90;;;;;;5116308;28;20469;-53
2022/11/23 06:18:50;;;;;;;2.30;0.40;;;5.50;99.90;;;;;;5114745;28;20519;-55
2022/11/23 06:21:17;;;;;;;1.48;0.40;;;5.50;99.90;;;;;;5108852;28;20432;-56
2022/11/23 06:23:46;;;;;;;0.70;0.30;;;5.50;99.90;;;;;;5108411;28;20431;-56
2022/11/23 06:26:13;;;;;;;0.90;0.40;;;5.40;99.90;;;;;;5115896;28;20506;-54
2022/11/23 06:28:41;;;;;;;1.02;0.30;;;5.40;99.90;;;;;;5101544;28;20490;-53
2022/11/23 06:31:08;;;;;;;0.90;0.40;;;5.40;99.90;;;;;;5094056;28;20434;-55
2022/11/23 06:33:35;;;;;;;2.60;0.40;;;5.40;99.90;;;;;;5095134;28;20508;-55
2022/11/23 06:36:03;;;;;;;0.60;0.40;;;5.40;99.90;;;;;;5095640;28;20426;-54
2022/11/23 06:38:30;;;;;;;1.92;0.47;;;5.30;99.90;;;;;;5094998;28;20418;-55
2022/11/23 06:40:58;;;;;;;2.53;0.50;;;5.30;99.90;;;;;;5095151;28;20422;-56
2022/11/23 06:43:25;;;;;;;1.30;0.40;;;5.30;99.90;;;;;;5094618;28;20418;-55
2022/11/23 06:45:54;;;;;;;1.00;0.40;;;5.30;99.90;;;;;;5093524;28;20520;-56
2022/11/23 06:48:21;;;;;;;0.70;0.30;;;5.30;99.90;;;;;;5094160;28;20450;-54
2022/11/23 06:50:48;;;;;;;2.17;0.40;;;5.30;99.90;;;;;;5094171;28;20440;-51
2022/11/23 06:53:15;;;;;;;1.30;0.30;;;5.30;99.90;;;;;;5094880;28;20423;-56
2022/11/23 06:55:42;;;;;;;0.85;0.38;;;5.30;99.90;;;;;;5094284;28;20426;-54
2022/11/23 06:58:09;;;;;;;1.17;0.43;;;5.30;99.90;;;;;;5093549;28;20420;-53
2022/11/23 07:00:36;;;;;;;1.40;0.40;;;5.30;99.90;;;;;;5094301;28;20650;-56
2022/11/23 07:03:04;;;;;;;0.70;0.40;;;5.30;99.90;;;;;;5094344;28;20509;-55
2022/11/23 07:05:31;;;;;;;1.00;0.40;;;5.30;99.90;;;;;;5094208;28;20428;-56
2022/11/23 07:07:58;;;;;;;1.58;0.40;;;5.20;99.90;;;;;;5098959;28;20420;-56
2022/11/23 07:10:25;;;;;;;1.40;0.40;;;5.20;99.90;;;;;;5102729;28;20991;-53
2022/11/23 07:12:52;;;;;;;2.30;0.53;;;5.20;99.90;;;;;;5092834;28;20919;-57
2022/11/23 07:15:19;;;;;;;1.05;0.40;;;5.30;99.90;;;;;;5092115;28;20610;-56
2022/11/23 07:17:46;;;;;;;1.00;0.40;;;5.30;99.90;;;;;;5110688;28;20420;-56
2022/11/23 07:20:14;;;;;;;2.13;0.40;;;5.30;99.90;;;;;;5103695;28;20434;-55
2022/11/23 07:22:41;;;;;;;1.20;0.40;;;5.40;99.90;;;;;;5092800;28;20414;-56
2022/11/23 07:25:10;;;;;;;2.30;0.30;;;5.30;99.90;;;;;;5096357;28;20428;-56
2022/11/23 07:27:37;;;;;;;1.50;0.40;;;5.30;99.90;;;;;;5101156;28;20878;-57
2022/11/23 07:30:04;;;;;;;2.00;0.40;;;5.30;99.90;;;;;;5109129;28;20456;-57
2022/11/23 07:32:31;;;;;;;0.60;0.30;;;5.30;99.90;;;;;;5096698;28;20195;-60
2022/11/23 07:34:58;;;;;;;2.30;0.40;;;5.30;99.90;;;;;;5098868;28;20459;-57
2022/11/23 07:37:26;;;;;;;0.70;0.30;;;5.30;99.90;;;;;;5108175;28;20465;-58
2022/11/23 07:39:53;;;;;;;0.80;0.30;;;5.30;99.90;;;;;;5113030;28;20461;-58
2022/11/23 07:42:21;;;;;;;0.97;0.27;;;5.30;99.90;;;;;;5111040;28;20527;-56
2022/11/23 07:44:47;;;;;;;1.57;0.37;;;5.30;99.90;;;;;;5114293;28;20559;-57
2022/11/23 07:47:14;;;;;;;0.70;0.40;;;5.30;99.90;;;;;;5118795;28;20440;-56
2022/11/23 07:49:41;;;;;;;2.43;0.30;;;5.40;99.90;;;;;;5114537;28;20467;-58
2022/11/23 07:52:08;;;;;;;1.97;0.30;;;5.40;99.90;;;;;;5116262;28;20480;-58
2022/11/23 07:54:36;;;;;;;0.53;0.30;;;5.40;99.90;;;;;;5117277;28;20756;-58
2022/11/23 07:57:03;;;;;;;0.90;0.40;;;5.50;99.90;;;;;;5113682;28;20463;-57
2022/11/23 07:59:30;;;;;;;1.40;0.20;;;5.50;99.90;;;;;;5104596;28;20770;-58
2022/11/23 08:01:56;;;;;;;1.37;0.30;;;5.60;99.90;;;;;;5117088;28;20443;-57
2022/11/23 08:04:23;;;;;;;1.27;0.33;;;5.60;99.90;;;;;;5113197;28;20465;-57
2022/11/23 08:06:50;;;;;;;0.77;0.50;;;5.70;99.90;;;;;;5110951;28;20461;-58
2022/11/23 08:09:18;;;;;;;2.10;0.50;;;5.70;99.90;;;;;;5116008;28;20461;-57
2022/11/23 08:11:46;;;;;;;1.37;0.40;;;5.80;99.90;;;;;;5106635;28;20223;-58
2022/11/23 08:14:13;;;;;;;0.63;0.30;;;5.80;99.90;;;;;;5102160;28;20457;-57
2022/11/23 08:16:40;;;;;;;0.83;0.30;;;5.90;99.90;;;;;;5115018;28;20474;-56
2022/11/23 08:19:07;;;;;;;0.60;0.40;;;5.90;98.40;;;;;;5115697;28;20483;-57
2022/11/23 08:21:34;;;;;;;0.70;0.30;;;6.00;94.00;;;;;;5112442;28;20464;-56
2022/11/23 08:24:01;;;;;;;2.33;0.30;;;6.10;93.80;;;;;;5114316;28;20456;-56
2022/11/23 08:26:28;;;;;;;0.93;0.23;;;6.00;87.50;;;;;;5118323;28;20909;-56
2022/11/23 08:28:56;;;;;;;0.73;0.40;;;6.10;90.90;;;;;;5117977;28;20770;-57
2022/11/23 08:31:23;;;;;;;1.27;0.30;;;6.10;83.20;;;;;;5118525;28;20571;-56
2022/11/23 08:33:50;;;;;;;1.43;0.30;;;6.10;79.90;;;;;;5115495;28;20452;-58
2022/11/23 08:36:17;;;;;;;15.13;0.50;;;6.20;83.90;;;;;;5111032;28;20468;-58
2022/11/23 08:38:44;;;;;;;0.90;0.20;;;6.20;80.10;;;;;;5112669;28;20456;-58
2022/11/23 08:41:11;;;;;;;0.70;0.20;;;6.20;71.30;;;;;;5107912;28;20449;-58
2022/11/23 08:43:38;;;;;;;0.60;0.20;;;6.30;73.70;;;;;;5109302;28;20458;-59
2022/11/23 08:46:06;;;;;;;0.50;0.30;;;6.30;70.80;;;;;;5112627;28;20448;-59
2022/11/23 08:48:33;;;;;;;1.27;0.30;;;6.30;67.80;;;;;;5110895;28;20764;-59
2022/11/23 08:51:00;;;;;;;0.60;0.30;;;6.40;54.00;;;;;;5115980;28;20573;-59
2022/11/23 08:53:27;;;;;;;0.87;0.30;;;6.50;61.60;;;;;;5109439;28;20927;-58
2022/11/23 08:55:53;;;;;;;0.77;0.30;;;6.50;42.60;;;;;;5108403;28;20897;-59
2022/11/23 08:58:21;;;;;;;0.60;0.30;;;6.60;37.30;;;;;;5110127;28;20592;-57
2022/11/23 09:00:48;;;;;;;0.97;0.40;;;6.60;32.60;;;;;;5116487;28;20552;-59
2022/11/23 09:03:16;;;;;;;3.53;0.30;;;6.70;24.90;;;;;;5116278;28;20926;-58
2022/11/23 09:05:43;;;;;;;1.20;0.30;;;6.70;23.40;;;;;;5110889;28;20476;-59
2022/11/23 09:08:10;;;;;;;1.20;0.47;;;6.70;20.10;;;;;;5110160;28;20888;-58
2022/11/23 09:10:37;;;;;;;4.53;0.30;;;6.70;16.10;;;;;;5104229;28;20465;-58
2022/11/23 09:13:04;;;;;;;4.03;0.30;;;6.70;1.00;;;;;;5110130;28;20523;-59
2022/11/23 09:15:31;;;;;;;1.13;0.40;;;6.70;6.80;;;;;;5106221;28;20915;-56
2022/11/23 09:17:58;;;;;;;1.20;0.40;;;6.80;11.90;;;;;;5109202;28;20834;-56
2022/11/23 09:20:26;;;;;;;1.53;0.30;;;6.90;1.00;;;;;;5116882;28;20579;-57
2022/11/23 09:22:54;;;;;;;1.20;0.20;;;7.00;1.00;;;;;;5113709;28;20547;-56
2022/11/23 09:25:22;;;;;;;0.77;0.30;;;7.00;1.00;;;;;;5116656;28;20957;-57
2022/11/23 09:27:49;;;;;;;0.60;0.30;;;7.00;1.00;;;;;;5112621;28;22145;-56
2022/11/23 09:30:17;;;;;;;0.40;0.20;;;7.10;1.00;;;;;;5096841;28;20619;-56
2022/11/23 09:32:43;;;;;;;2.10;0.30;;;7.10;1.00;;;;;;5115569;28;20911;-56
2022/11/23 09:35:10;;;;;;;0.80;0.40;;;7.10;1.00;;;;;;5114074;28;20460;-54
2022/11/23 09:37:38;;;;;;;1.17;0.37;;;7.20;1.00;;;;;;5116072;28;20455;-54
2022/11/23 09:40:06;;;;;;;0.60;0.20;;;7.20;1.00;;;;;;5108441;28;20460;-54
2022/11/23 09:43:02;;;;;;;0.40;0.20;;;7.30;1.00;;;;;;5103885;28;20490;-54
2022/11/23 09:45:37;;;;;;;2.20;0.30;;;7.30;1.00;;;;;;5115008;28;20767;-56
2022/11/23 09:48:27;;;;;;;0.60;0.30;;;7.40;1.00;;;;;;5112601;28;20552;-56
2022/11/23 09:51:00;;;;;;;0.60;0.30;;;7.40;1.00;;;;;;5115703;28;20486;-56
2022/11/23 09:53:33;;;;;;;1.80;0.23;;;7.50;1.00;;;;;;5116173;28;20524;-54
2022/11/23 09:55:59;;;;;;;1.30;0.40;;;7.50;1.00;;;;;;5111339;28;20763;-57
2022/11/23 09:58:33;;;;;;;0.50;0.20;;;7.60;1.00;;;;;;5111764;28;20462;-57
2022/11/23 10:01:02;;;;;;;1.33;0.30;;;7.70;1.00;;;;;;5114470;28;20563;-53
2022/11/23 10:03:33;;;;;;;1.70;0.30;;;7.80;1.00;;;;;;5108999;28;20483;-55
2022/11/23 10:06:07;;;;;;;1.47;0.30;;;7.80;1.00;;;;;;5096324;28;20488;-56
2022/11/23 10:08:46;;;;;;;0.80;0.30;;;7.80;1.00;;;;;;5104246;28;20444;-55
2022/11/23 10:11:38;;;;;;;3.30;0.30;;;7.90;1.00;;;;;;5107857;28;20487;-56
2022/11/23 10:14:22;;;;;;;1.07;0.20;;;7.90;1.00;;;;;;5115190;28;20437;-57
2022/11/23 10:16:55;;;;;;;0.60;0.30;;;8.00;1.00;;;;;;5114785;28;20495;-56
2022/11/23 10:19:32;;;;;;;0.53;0.27;;;8.00;1.00;;;;;;5115981;28;20479;-55
2022/11/23 10:22:09;;;;;;;2.00;0.40;;;8.00;1.00;;;;;;5115565;28;20451;-54
2022/11/23 10:24:42;;;;;;;1.97;0.23;;;8.00;1.00;;;;;;5116061;28;20453;-57
2022/11/23 10:27:14;;;;;;;0.40;0.30;;;8.10;1.00;;;;;;5115257;28;20464;-57
2022/11/23 10:29:42;;;;;;;1.93;0.30;;;8.10;1.00;;;;;;5115997;28;20445;-57
2022/11/23 10:32:24;;;;;;;0.80;0.37;;;8.20;1.00;;;;;;5115527;28;20487;-57
2022/11/23 10:34:58;;;;;;;0.50;0.23;;;8.20;1.00;;;;;;5113135;28;20465;-59
2022/11/23 10:37:25;;;;;;;0.50;0.30;;;8.20;1.00;;;;;;5113681;28;20441;-60
2022/11/23 10:39:53;;;;;;;0.40;0.20;;;8.30;1.00;;;;;;5112504;28;20507;-60
2022/11/23 10:42:25;;;;;;;2.43;0.40;;;8.40;1.00;;;;;;5109973;28;21020;-59
2022/11/23 10:44:56;;;;;;;0.57;0.30;;;8.50;1.00;;;;;;5116084;28;20487;-60
2022/11/23 10:47:38;;;;;;;0.97;0.30;;;8.40;1.00;;;;;;5114781;28;20461;-60
2022/11/23 10:50:21;;;;;;;1.17;0.40;;;8.50;1.00;;;;;;5113742;28;20914;-61
2022/11/23 10:52:54;;;;;;;1.47;0.50;;;8.50;1.00;;;;;;5113954;28;20483;-60
2022/11/23 10:55:27;;;;;;;2.77;0.70;;;8.50;1.00;;;;;;5113863;28;20460;-61
2022/11/23 10:57:54;;;;;;;0.60;0.30;;;8.60;99.90;;;;;;5109341;28;20457;-61
2022/11/23 11:00:23;;;;;;;0.57;0.30;;;8.60;99.90;;;;;;5114407;28;20452;-60
2022/11/23 11:02:53;;;;;;;2.00;0.50;;;8.60;1.00;;;;;;5114528;28;20464;-60
2022/11/23 11:05:29;;;;;;;1.47;0.40;;;8.70;1.00;;;;;;5114640;28;20464;-60
2022/11/23 11:07:58;;;;;;;0.77;0.40;;;8.70;1.00;;;;;;5115162;28;20455;-60
2022/11/23 11:10:42;;;;;;;0.43;0.20;;;8.70;1.00;;;;;;5106512;28;20466;-60
2022/11/23 11:13:26;;;;;;;2.10;0.50;;;8.80;1.00;;;;;;5110880;28;20529;-60
2022/11/23 11:15:55;;;;;;;1.67;0.30;;;8.90;1.00;;;;;;5095276;28;20902;-60
2022/11/23 11:18:25;;;;;;;6.43;0.30;;;8.90;1.00;;;;;;5095154;28;20803;-60
2022/11/23 11:20:58;;;;;;;2.10;0.50;;;9.00;99.90;;;;;;5107573;28;20449;-60
2022/11/23 11:23:25;;;;;;;0.50;0.33;;;9.00;1.00;;;;;;5110781;28;20457;-60
2022/11/23 11:26:07;;;;;;;1.13;0.40;;;9.00;99.90;;;;;;5114661;28;20522;-60
2022/11/23 11:28:38;;;;;;;1.73;0.40;;;9.10;1.00;;;;;;5115260;28;20433;-60
2022/11/23 11:31:25;;;;;;;1.03;0.40;;;9.10;1.00;;;;;;5112990;28;20505;-60
2022/11/23 11:33:58;;;;;;;7.10;0.50;;;9.10;99.90;;;;;;5113190;28;20455;-60
2022/11/23 11:36:30;;;;;;;3.17;0.50;;;9.10;1.00;;;;;;5113500;28;20463;-61
2022/11/23 11:39:02;;;;;;;1.00;0.30;;;9.20;99.90;;;;;;5112997;28;20816;-61
2022/11/23 11:41:31;;;;;;;1.73;0.33;;;9.20;99.90;;;;;;5113720;28;21009;-61
2022/11/23 11:44:04;;;;;;;0.90;0.30;;;9.20;1.00;;;;;;5113187;28;20452;-60
2022/11/23 11:46:37;;;;;;;0.83;0.30;;;9.30;1.00;;;;;;5115753;28;20919;-58
2022/11/23 11:49:12;;;;;;;2.83;0.60;;;9.30;1.00;;;;;;5107765;28;20551;-59
2022/11/23 11:51:41;;;;;;;0.70;0.30;;;9.30;1.00;;;;;;5111763;28;20483;-58
2022/11/23 11:54:18;;;;;;;0.80;0.30;;;9.40;99.90;;;;;;5114825;28;20445;-58
2022/11/23 11:56:49;;;;;;;1.60;0.40;;;9.40;1.00;;;;;;5112431;28;20460;-58
2022/11/23 11:59:20;;;;;;;0.90;0.40;;;9.40;21.10;;;;;;5113580;28;20453;-58
2022/11/23 12:01:56;;;;;;;0.80;0.50;;;9.50;1.00;;;;;;5112115;28;20441;-58
2022/11/23 12:04:30;;;;;;;0.50;0.30;;;9.40;1.00;;;;;;5111438;28;20471;-57
2022/11/23 12:07:04;;;;;;;0.60;0.40;;;9.40;99.90;;;;;;5114111;28;20738;-58
2022/11/23 12:09:38;;;;;;;0.70;0.50;;;9.40;56.60;;;;;;5108895;28;20572;-58
2022/11/23 12:12:14;;;;;;;3.07;0.50;;;9.50;1.00;;;;;;5093841;28;20530;-58
2022/11/23 12:14:41;;;;;;;0.60;0.30;;;9.50;52.80;;;;;;5092935;28;20548;-60
2022/11/23 12:17:17;;;;;;;0.60;0.40;;;9.60;99.90;;;;;;5092106;28;20442;-57
2022/11/23 12:19:53;;;;;;;3.00;0.40;;;9.60;99.90;;;;;;5113622;28;20602;-58
2022/11/23 12:22:42;;;;;;;0.70;0.30;;;9.60;1.00;;;;;;5115681;28;20745;-58
2022/11/23 12:25:19;;;;;;;0.57;0.30;;;9.60;99.90;;;;;;5118152;28;20543;-58
2022/11/23 12:27:59;;;;;;;0.30;0.20;;;9.60;99.90;;;;;;5117284;28;20554;-57
2022/11/23 12:30:32;;;;;;;0.50;0.30;;;9.50;99.90;;;;;;5115625;28;20471;-57
2022/11/23 12:33:20;;;;;;;0.50;0.20;;;9.50;99.90;;;;;;5096950;28;20768;-58
2022/11/23 12:36:09;;;;;;;0.70;0.40;;;9.60;99.90;;;;;;5116202;28;20563;-58
2022/11/23 12:38:45;;;;;;;1.47;0.20;;;9.60;99.90;;;;;;5115734;28;20451;-58
2022/11/23 12:41:24;;;;;;;0.60;0.20;;;9.60;99.90;;;;;;5115989;28;20460;-58
2022/11/23 12:44:21;;;;;;;0.60;0.20;;;9.60;99.90;;;;;;5099769;28;20456;-59
2022/11/23 12:46:55;;;;;;;0.50;0.20;;;9.60;99.90;;;;;;5100605;28;20456;-58
2022/11/23 12:49:36;;;;;;;0.50;0.20;;;9.60;99.90;;;;;;5113376;28;20455;-59
2022/11/23 12:52:23;;;;;;;1.87;0.17;;;9.60;99.90;;;;;;5115551;28;20482;-58
2022/11/23 12:55:01;;;;;;;0.57;0.20;;;9.60;99.90;;;;;;5115867;28;20447;-59
2022/11/23 12:57:33;;;;;;;5.03;0.20;;;9.70;99.90;;;;;;5113269;28;20463;-58
2022/11/23 13:00:06;;;;;;;1.90;0.20;;;9.70;99.90;;;;;;5115732;28;20479;-59
2022/11/23 13:03:07;;;;;;;0.30;0.20;;;9.70;99.90;;;;;;5113003;28;20839;-58
2022/11/23 13:06:00;;;;;;;0.40;0.20;;;9.70;99.90;;;;;;5112750;28;20817;-57
2022/11/23 13:08:54;;;;;;;0.50;0.20;;;9.70;99.90;;;;;;5094795;28;20527;-59
2022/11/23 13:11:31;;;;;;;1.00;0.20;;;9.60;99.90;;;;;;5111821;28;20551;-58